createdAt,value
2017-12-20T00:00:07.137Z,929.8
2017-12-20T00:00:19.798Z,929.79
2017-12-20T00:00:32.902Z,929.79
2017-12-20T00:00:45.607Z,929.76
2017-12-20T00:00:58.739Z,929.76
2017-12-20T00:01:11.845Z,929.78
2017-12-20T00:01:24.933Z,929.8
2017-12-20T00:01:37.549Z,929.82
2017-12-20T00:01:50.703Z,929.82
2017-12-20T00:02:03.788Z,929.79
2017-12-20T00:02:16.445Z,929.81
2017-12-20T00:02:29.132Z,929.79
2017-12-20T00:02:41.827Z,929.82
2017-12-20T00:02:54.944Z,929.82
2017-12-20T00:03:08.085Z,929.78
2017-12-20T00:03:21.237Z,929.79
2017-12-20T00:03:33.893Z,929.81
2017-12-20T00:03:46.519Z,929.82
2017-12-20T00:03:59.170Z,929.8
2017-12-20T00:04:12.284Z,929.84
2017-12-20T00:04:24.493Z,929.84
2017-12-20T00:04:37.542Z,929.84
2017-12-20T00:04:50.690Z,929.84
2017-12-20T00:05:03.381Z,929.82
2017-12-20T00:05:15.984Z,929.84
2017-12-20T00:05:29.148Z,929.84
2017-12-20T00:05:42.204Z,929.8
2017-12-20T00:05:55.511Z,929.83
2017-12-20T00:06:08.217Z,929.84
2017-12-20T00:06:20.849Z,929.83
2017-12-20T00:06:33.941Z,929.85
2017-12-20T00:06:46.489Z,929.9
2017-12-20T00:06:59.679Z,929.87
2017-12-20T00:07:12.245Z,929.85
2017-12-20T00:07:25.287Z,929.84
2017-12-20T00:07:37.939Z,929.88
2017-12-20T00:07:50.635Z,929.89
2017-12-20T00:08:03.725Z,929.92
2017-12-20T00:08:16.828Z,929.87
2017-12-20T00:08:29.951Z,929.86
2017-12-20T00:08:42.595Z,929.9
2017-12-20T00:08:55.133Z,929.81
2017-12-20T00:09:08.241Z,929.82
2017-12-20T00:09:21.565Z,929.81
2017-12-20T00:09:34.175Z,929.83
2017-12-20T00:09:47.268Z,929.83
2017-12-20T00:10:00.382Z,929.83
2017-12-20T00:10:13.428Z,929.86
2017-12-20T00:10:26.501Z,929.94
2017-12-20T00:10:39.559Z,929.91
2017-12-20T00:10:52.687Z,929.86
2017-12-20T00:11:06.804Z,929.96
2017-12-20T00:11:19.964Z,929.95
2017-12-20T00:11:33.046Z,929.88
2017-12-20T00:11:46.181Z,929.98
2017-12-20T00:11:58.787Z,929.98
2017-12-20T00:12:11.444Z,929.93
2017-12-20T00:12:24.525Z,929.99
2017-12-20T00:12:37.617Z,929.92
2017-12-20T00:12:50.707Z,929.93
2017-12-20T00:13:03.328Z,929.96
2017-12-20T00:13:15.952Z,929.93
2017-12-20T00:13:29.065Z,929.92
2017-12-20T00:13:42.229Z,929.99
2017-12-20T00:13:54.409Z,929.97
2017-12-20T00:14:07.453Z,929.95
2017-12-20T00:14:20.560Z,929.96
2017-12-20T00:14:33.668Z,929.95
2017-12-20T00:14:46.763Z,929.96
2017-12-20T00:14:59.889Z,929.94
2017-12-20T00:15:12.995Z,930.02
2017-12-20T00:15:25.686Z,929.98
2017-12-20T00:15:38.739Z,929.98
2017-12-20T00:15:51.315Z,929.99
2017-12-20T00:16:04.443Z,930.02
2017-12-20T00:16:17.516Z,929.97
2017-12-20T00:16:30.153Z,930.02
2017-12-20T00:16:42.815Z,930.04
2017-12-20T00:16:55.409Z,930.05
2017-12-20T00:17:08.460Z,930.06
2017-12-20T00:17:21.083Z,930.03
2017-12-20T00:17:34.190Z,930.07
2017-12-20T00:17:47.308Z,930.09
2017-12-20T00:17:59.921Z,930.11
2017-12-20T00:18:12.511Z,930.1
2017-12-20T00:18:25.124Z,930.12
2017-12-20T00:18:38.217Z,930.09
2017-12-20T00:18:50.781Z,930.12
2017-12-20T00:19:03.887Z,930.1
2017-12-20T00:19:17.049Z,930.14
2017-12-20T00:19:29.866Z,930.16
2017-12-20T00:19:42.961Z,930.21
2017-12-20T00:19:56.143Z,930.19
2017-12-20T00:20:09.163Z,930.17
2017-12-20T00:20:21.347Z,930.2
2017-12-20T00:20:34.443Z,930.19
2017-12-20T00:20:47.528Z,930.19
2017-12-20T00:21:00.586Z,930.2
2017-12-20T00:21:13.632Z,930.19
2017-12-20T00:21:26.255Z,930.21
2017-12-20T00:21:39.320Z,930.25
2017-12-20T00:21:52.332Z,930.28
2017-12-20T00:22:04.880Z,930.21
2017-12-20T00:22:17.560Z,930.28
2017-12-20T00:22:29.711Z,930.24
2017-12-20T00:22:42.768Z,930.29
2017-12-20T00:22:54.871Z,930.29
2017-12-20T00:23:07.995Z,930.32
2017-12-20T00:23:20.614Z,930.3
2017-12-20T00:23:33.664Z,930.31
2017-12-20T00:23:46.718Z,930.31
2017-12-20T00:23:59.724Z,930.3
2017-12-20T00:24:12.346Z,930.33
2017-12-20T00:24:25.478Z,930.34
2017-12-20T00:24:39.332Z,930.35
2017-12-20T00:24:52.480Z,930.36
2017-12-20T00:25:05.593Z,930.36
2017-12-20T00:25:18.212Z,930.39
2017-12-20T00:25:31.335Z,930.32
2017-12-20T00:25:43.954Z,930.36
2017-12-20T00:25:57.029Z,930.37
2017-12-20T00:26:10.062Z,930.38
2017-12-20T00:26:23.153Z,930.35
2017-12-20T00:26:36.251Z,930.38
2017-12-20T00:26:49.341Z,930.34
2017-12-20T00:27:01.997Z,930.35
2017-12-20T00:27:15.047Z,930.38
2017-12-20T00:27:28.095Z,930.37
2017-12-20T00:27:41.142Z,930.37
2017-12-20T00:27:54.425Z,930.36
2017-12-20T00:28:06.542Z,930.36
2017-12-20T00:28:18.617Z,930.37
2017-12-20T00:28:31.678Z,930.37
2017-12-20T00:28:44.374Z,930.35
2017-12-20T00:28:57.436Z,930.34
2017-12-20T00:29:10.602Z,930.32
2017-12-20T00:29:23.192Z,930.38
2017-12-20T00:29:35.740Z,930.39
2017-12-20T00:29:48.819Z,930.39
2017-12-20T00:30:01.525Z,930.4
2017-12-20T00:30:14.740Z,930.39
2017-12-20T00:30:27.952Z,930.39
2017-12-20T00:30:41.095Z,930.38
2017-12-20T00:30:54.261Z,930.36
2017-12-20T00:31:07.339Z,930.33
2017-12-20T00:31:20.356Z,930.34
2017-12-20T00:31:33.477Z,930.37
2017-12-20T00:31:46.133Z,930.35
2017-12-20T00:31:59.317Z,930.35
2017-12-20T00:32:11.861Z,930.39
2017-12-20T00:32:24.986Z,930.36
2017-12-20T00:32:38.146Z,930.38
2017-12-20T00:32:51.319Z,930.39
2017-12-20T00:33:04.566Z,930.35
2017-12-20T00:33:17.839Z,930.34
2017-12-20T00:33:31.075Z,930.38
2017-12-20T00:33:43.329Z,930.34
2017-12-20T00:33:56.490Z,930.37
2017-12-20T00:34:09.150Z,930.36
2017-12-20T00:34:22.285Z,930.37
2017-12-20T00:34:34.957Z,930.4
2017-12-20T00:34:48.072Z,930.43
2017-12-20T00:35:02.731Z,930.4
2017-12-20T00:35:15.378Z,930.41
2017-12-20T00:35:28.548Z,930.39
2017-12-20T00:35:41.820Z,930.42
2017-12-20T00:35:55.043Z,930.4
2017-12-20T00:36:07.667Z,930.44
2017-12-20T00:36:20.373Z,930.41
2017-12-20T00:36:33.631Z,930.45
2017-12-20T00:36:46.933Z,930.45
2017-12-20T00:37:00.144Z,930.48
2017-12-20T00:37:13.399Z,930.42
2017-12-20T00:37:26.573Z,930.46
2017-12-20T00:37:39.793Z,930.44
2017-12-20T00:37:53.072Z,930.44
2017-12-20T00:38:06.221Z,930.46
2017-12-20T00:38:18.411Z,930.45
2017-12-20T00:38:31.499Z,930.45
2017-12-20T00:38:44.766Z,930.46
2017-12-20T00:38:58.118Z,930.43
2017-12-20T00:39:10.940Z,930.41
2017-12-20T00:39:24.271Z,930.43
2017-12-20T00:39:37.756Z,930.45
2017-12-20T00:39:51.014Z,930.4
2017-12-20T00:40:04.304Z,930.41
2017-12-20T00:40:17.542Z,930.4
2017-12-20T00:40:30.963Z,930.42
2017-12-20T00:40:44.240Z,930.43
2017-12-20T00:40:57.574Z,930.45
2017-12-20T00:41:10.880Z,930.45
2017-12-20T00:41:23.758Z,930.43
2017-12-20T00:41:37.132Z,930.41
2017-12-20T00:41:49.483Z,930.43
2017-12-20T00:42:02.803Z,930.47
2017-12-20T00:42:15.671Z,930.44
2017-12-20T00:42:28.424Z,930.45
2017-12-20T00:42:41.747Z,930.43
2017-12-20T00:42:54.936Z,930.47
2017-12-20T00:43:08.249Z,930.47
2017-12-20T00:43:21.657Z,930.46
2017-12-20T00:43:34.988Z,930.45
2017-12-20T00:43:47.899Z,930.41
2017-12-20T00:44:01.153Z,930.44
2017-12-20T00:44:14.549Z,930.48
2017-12-20T00:44:28.016Z,930.45
2017-12-20T00:44:41.390Z,930.45
2017-12-20T00:44:54.283Z,930.45
2017-12-20T00:45:07.533Z,930.47
2017-12-20T00:45:19.859Z,930.49
2017-12-20T00:45:33.186Z,930.44
2017-12-20T00:45:45.978Z,930.44
2017-12-20T00:45:59.396Z,930.45
2017-12-20T00:46:12.451Z,930.46
2017-12-20T00:46:25.648Z,930.47
2017-12-20T00:46:38.378Z,930.46
2017-12-20T00:46:51.636Z,930.43
2017-12-20T00:47:04.940Z,930.45
2017-12-20T00:47:18.066Z,930.44
2017-12-20T00:47:31.475Z,930.47
2017-12-20T00:47:44.300Z,930.43
2017-12-20T00:47:56.995Z,930.43
2017-12-20T00:48:10.245Z,930.45
2017-12-20T00:48:23.634Z,930.44
2017-12-20T00:48:37.127Z,930.41
2017-12-20T00:48:50.325Z,930.46
2017-12-20T00:49:03.543Z,930.45
2017-12-20T00:49:16.397Z,930.44
2017-12-20T00:49:29.185Z,930.45
2017-12-20T00:49:42.306Z,930.42
2017-12-20T00:49:55.603Z,930.42
2017-12-20T00:50:08.738Z,930.43
2017-12-20T00:50:21.220Z,930.44
2017-12-20T00:50:34.558Z,930.42
2017-12-20T00:50:47.953Z,930.42
2017-12-20T00:51:01.202Z,930.42
2017-12-20T00:51:14.095Z,930.43
2017-12-20T00:51:27.366Z,930.44
2017-12-20T00:51:40.662Z,930.44
2017-12-20T00:51:53.352Z,930.44
2017-12-20T00:52:06.131Z,930.4
2017-12-20T00:52:18.872Z,930.42
2017-12-20T00:52:32.149Z,930.44
2017-12-20T00:52:45.339Z,930.43
2017-12-20T00:52:57.600Z,930.42
2017-12-20T00:53:10.389Z,930.39
2017-12-20T00:53:23.166Z,930.41
2017-12-20T00:53:36.484Z,930.48
2017-12-20T00:53:49.664Z,930.43
2017-12-20T00:54:02.863Z,930.39
2017-12-20T00:54:15.658Z,930.34
2017-12-20T00:54:28.967Z,930.38
2017-12-20T00:54:42.919Z,930.36
2017-12-20T00:54:56.210Z,930.38
2017-12-20T00:55:09.524Z,930.39
2017-12-20T00:55:21.774Z,930.32
2017-12-20T00:55:34.093Z,930.37
2017-12-20T00:55:47.302Z,930.41
2017-12-20T00:56:00.039Z,930.34
2017-12-20T00:56:13.316Z,930.39
2017-12-20T00:56:26.532Z,930.4
2017-12-20T00:56:39.213Z,930.34
2017-12-20T00:56:52.426Z,930.38
2017-12-20T00:57:05.619Z,930.33
2017-12-20T00:57:18.785Z,930.36
2017-12-20T00:57:31.896Z,930.29
2017-12-20T00:57:44.984Z,930.4
2017-12-20T00:57:58.023Z,930.35
2017-12-20T00:58:10.581Z,930.33
2017-12-20T00:58:23.706Z,930.31
2017-12-20T00:58:36.389Z,930.31
2017-12-20T00:58:49.515Z,930.32
2017-12-20T00:59:02.637Z,930.32
2017-12-20T00:59:15.744Z,930.31
2017-12-20T00:59:28.830Z,930.31
2017-12-20T00:59:41.980Z,930.29
2017-12-20T00:59:54.556Z,930.29
2017-12-20T01:00:07.450Z,930.33
2017-12-20T01:00:20.893Z,930.28
2017-12-20T01:00:33.843Z,930.27
2017-12-20T01:00:47.224Z,930.28
2017-12-20T01:01:00.700Z,930.26
2017-12-20T01:01:13.905Z,930.35
2017-12-20T01:01:27.297Z,930.25
2017-12-20T01:01:40.680Z,930.25
2017-12-20T01:01:54.079Z,930.27
2017-12-20T01:02:07.595Z,930.23
2017-12-20T01:02:20.773Z,930.31
2017-12-20T01:02:33.722Z,930.3
2017-12-20T01:02:47.213Z,930.33
2017-12-20T01:03:00.791Z,930.28
2017-12-20T01:03:14.063Z,930.28
2017-12-20T01:03:27.528Z,930.28
2017-12-20T01:03:40.528Z,930.34
2017-12-20T01:03:53.909Z,930.31
2017-12-20T01:04:06.768Z,930.29
2017-12-20T01:04:18.965Z,930.27
2017-12-20T01:04:31.822Z,930.32
2017-12-20T01:04:45.217Z,930.29
2017-12-20T01:04:58.530Z,930.29
2017-12-20T01:05:11.542Z,930.34
2017-12-20T01:05:24.610Z,930.31
2017-12-20T01:05:37.649Z,930.26
2017-12-20T01:05:51.093Z,930.23
2017-12-20T01:06:04.271Z,930.27
2017-12-20T01:06:17.765Z,930.26
2017-12-20T01:06:30.660Z,930.3
2017-12-20T01:06:43.391Z,930.21
2017-12-20T01:06:56.563Z,930.22
2017-12-20T01:07:09.876Z,930.24
2017-12-20T01:07:23.337Z,930.27
2017-12-20T01:07:35.722Z,930.23
2017-12-20T01:07:49.182Z,930.24
2017-12-20T01:08:02.530Z,930.23
2017-12-20T01:08:15.776Z,930.27
2017-12-20T01:08:28.968Z,930.23
2017-12-20T01:08:42.201Z,930.24
2017-12-20T01:08:55.455Z,930.22
2017-12-20T01:09:08.642Z,930.23
2017-12-20T01:09:21.943Z,930.24
2017-12-20T01:09:35.255Z,930.25
2017-12-20T01:09:48.935Z,930.25
2017-12-20T01:10:02.242Z,930.21
2017-12-20T01:10:15.031Z,930.22
2017-12-20T01:10:28.329Z,930.26
2017-12-20T01:10:41.531Z,930.24
2017-12-20T01:10:54.825Z,930.26
2017-12-20T01:11:09.702Z,930.27
2017-12-20T01:11:23.008Z,930.23
2017-12-20T01:11:36.122Z,930.27
2017-12-20T01:11:49.164Z,930.3
2017-12-20T01:12:02.208Z,930.26
2017-12-20T01:12:15.372Z,930.32
2017-12-20T01:12:28.495Z,930.31
2017-12-20T01:12:41.572Z,930.35
2017-12-20T01:12:54.651Z,930.32
2017-12-20T01:13:07.780Z,930.36
2017-12-20T01:13:21.195Z,930.34
2017-12-20T01:13:34.296Z,930.31
2017-12-20T01:13:46.485Z,930.28
2017-12-20T01:13:59.598Z,930.32
2017-12-20T01:14:11.727Z,930.35
2017-12-20T01:14:24.390Z,930.31
2017-12-20T01:14:37.538Z,930.35
2017-12-20T01:14:50.604Z,930.34
2017-12-20T01:15:03.697Z,930.38
2017-12-20T01:15:16.234Z,930.39
2017-12-20T01:15:29.293Z,930.35
2017-12-20T01:15:41.959Z,930.35
2017-12-20T01:15:55.053Z,930.33
2017-12-20T01:16:07.622Z,930.4
2017-12-20T01:16:20.692Z,930.39
2017-12-20T01:16:33.812Z,930.37
2017-12-20T01:16:46.887Z,930.37
2017-12-20T01:16:59.911Z,930.35
2017-12-20T01:17:12.993Z,930.4
2017-12-20T01:17:25.648Z,930.41
2017-12-20T01:17:38.719Z,930.41
2017-12-20T01:17:51.803Z,930.39
2017-12-20T01:18:04.922Z,930.39
2017-12-20T01:18:17.523Z,930.43
2017-12-20T01:18:30.146Z,930.4
2017-12-20T01:18:42.748Z,930.42
2017-12-20T01:18:55.856Z,930.39
2017-12-20T01:19:09.012Z,930.38
2017-12-20T01:19:22.111Z,930.37
2017-12-20T01:19:35.188Z,930.41
2017-12-20T01:19:48.261Z,930.41
2017-12-20T01:20:01.596Z,930.41
2017-12-20T01:20:14.671Z,930.38
2017-12-20T01:20:27.796Z,930.42
2017-12-20T01:20:40.899Z,930.37
2017-12-20T01:20:53.939Z,930.41
2017-12-20T01:21:07.009Z,930.39
2017-12-20T01:21:20.194Z,930.4
2017-12-20T01:21:32.822Z,930.4
2017-12-20T01:21:45.927Z,930.43
2017-12-20T01:21:58.624Z,930.41
2017-12-20T01:22:11.282Z,930.4
2017-12-20T01:22:24.344Z,930.39
2017-12-20T01:22:37.368Z,930.38
2017-12-20T01:22:50.395Z,930.4
2017-12-20T01:23:02.967Z,930.37
2017-12-20T01:23:16.060Z,930.35
2017-12-20T01:23:29.166Z,930.38
2017-12-20T01:23:42.304Z,930.34
2017-12-20T01:23:55.330Z,930.35
2017-12-20T01:24:07.962Z,930.4
2017-12-20T01:24:21.084Z,930.41
2017-12-20T01:24:33.659Z,930.38
2017-12-20T01:24:46.983Z,930.37
2017-12-20T01:25:00.853Z,930.45
2017-12-20T01:25:13.499Z,930.43
2017-12-20T01:25:25.618Z,930.39
2017-12-20T01:25:38.706Z,930.37
2017-12-20T01:25:51.431Z,930.39
2017-12-20T01:26:04.105Z,930.39
2017-12-20T01:26:17.185Z,930.37
2017-12-20T01:26:29.748Z,930.4
2017-12-20T01:26:42.825Z,930.39
2017-12-20T01:26:57.286Z,930.39
2017-12-20T01:27:09.928Z,930.4
2017-12-20T01:27:22.952Z,930.36
2017-12-20T01:27:36.015Z,930.34
2017-12-20T01:27:49.105Z,930.4
2017-12-20T01:28:02.184Z,930.38
2017-12-20T01:28:14.794Z,930.38
2017-12-20T01:28:27.879Z,930.38
2017-12-20T01:28:41.000Z,930.36
2017-12-20T01:28:53.118Z,930.33
2017-12-20T01:29:05.719Z,930.36
2017-12-20T01:29:18.455Z,930.38
2017-12-20T01:29:31.484Z,930.38
2017-12-20T01:29:44.533Z,930.35
2017-12-20T01:29:57.128Z,930.35
2017-12-20T01:30:09.261Z,930.35
2017-12-20T01:30:22.391Z,930.34
2017-12-20T01:30:35.506Z,930.37
2017-12-20T01:30:48.673Z,930.38
2017-12-20T01:31:01.257Z,930.37
2017-12-20T01:31:14.316Z,930.37
2017-12-20T01:31:27.405Z,930.34
2017-12-20T01:31:40.485Z,930.35
2017-12-20T01:31:53.514Z,930.37
2017-12-20T01:32:06.144Z,930.37
2017-12-20T01:32:18.706Z,930.33
2017-12-20T01:32:31.297Z,930.32
2017-12-20T01:32:45.409Z,930.33
2017-12-20T01:32:58.487Z,930.39
2017-12-20T01:33:11.534Z,930.35
2017-12-20T01:33:24.160Z,930.35
2017-12-20T01:33:37.275Z,930.33
2017-12-20T01:33:50.329Z,930.33
2017-12-20T01:34:03.443Z,930.3
2017-12-20T01:34:16.561Z,930.32
2017-12-20T01:34:29.115Z,930.35
2017-12-20T01:34:42.253Z,930.32
2017-12-20T01:34:55.304Z,930.3
2017-12-20T01:35:08.392Z,930.31
2017-12-20T01:35:20.589Z,930.3
2017-12-20T01:35:33.660Z,930.38
2017-12-20T01:35:46.797Z,930.35
2017-12-20T01:35:59.890Z,930.35
2017-12-20T01:36:12.875Z,930.36
2017-12-20T01:36:25.922Z,930.35
2017-12-20T01:36:39.000Z,930.33
2017-12-20T01:36:52.119Z,930.32
2017-12-20T01:37:03.790Z,930.33
2017-12-20T01:37:16.890Z,930.32
2017-12-20T01:37:29.491Z,930.33
2017-12-20T01:37:42.549Z,930.3
2017-12-20T01:37:55.637Z,930.29
2017-12-20T01:38:08.283Z,930.28
2017-12-20T01:38:20.840Z,930.32
2017-12-20T01:38:33.865Z,930.27
2017-12-20T01:38:46.537Z,930.3
2017-12-20T01:38:59.605Z,930.26
2017-12-20T01:39:12.201Z,930.26
2017-12-20T01:39:25.206Z,930.24
2017-12-20T01:39:38.286Z,930.28
2017-12-20T01:39:51.380Z,930.28
2017-12-20T01:40:04.009Z,930.23
2017-12-20T01:40:16.606Z,930.26
2017-12-20T01:40:29.740Z,930.22
2017-12-20T01:40:43.078Z,930.25
2017-12-20T01:40:56.169Z,930.22
2017-12-20T01:41:09.291Z,930.24
2017-12-20T01:41:22.318Z,930.23
2017-12-20T01:41:35.384Z,930.2
2017-12-20T01:41:48.012Z,930.2
2017-12-20T01:42:01.109Z,930.19
2017-12-20T01:42:13.740Z,930.18
2017-12-20T01:42:26.750Z,930.18
2017-12-20T01:42:41.250Z,930.14
2017-12-20T01:42:54.446Z,930.16
2017-12-20T01:43:07.491Z,930.16
2017-12-20T01:43:20.567Z,930.14
2017-12-20T01:43:33.702Z,930.15
2017-12-20T01:43:46.301Z,930.14
2017-12-20T01:43:59.334Z,930.12
2017-12-20T01:44:11.945Z,930.16
2017-12-20T01:44:25.103Z,930.12
2017-12-20T01:44:38.225Z,930.1
2017-12-20T01:44:51.285Z,930.07
2017-12-20T01:45:03.880Z,930.09
2017-12-20T01:45:16.484Z,930.03
2017-12-20T01:45:29.593Z,930.07
2017-12-20T01:45:42.716Z,930.08
2017-12-20T01:45:55.756Z,930.08
2017-12-20T01:46:08.806Z,930.04
2017-12-20T01:46:20.998Z,930.06
2017-12-20T01:46:34.250Z,930.06
2017-12-20T01:46:47.317Z,930.05
2017-12-20T01:47:00.406Z,930.02
2017-12-20T01:47:13.501Z,930.01
2017-12-20T01:47:26.594Z,930.03
2017-12-20T01:47:39.638Z,930.02
2017-12-20T01:47:53.020Z,930
2017-12-20T01:48:06.109Z,930.03
2017-12-20T01:48:18.750Z,930.01
2017-12-20T01:48:31.895Z,930.03
2017-12-20T01:48:45.033Z,929.99
2017-12-20T01:48:57.585Z,930
2017-12-20T01:49:10.664Z,930.03
2017-12-20T01:49:23.239Z,929.98
2017-12-20T01:49:36.337Z,930
2017-12-20T01:49:49.413Z,930.01
2017-12-20T01:50:02.615Z,930.01
2017-12-20T01:50:15.492Z,930
2017-12-20T01:50:28.604Z,929.99
2017-12-20T01:50:41.711Z,929.99
2017-12-20T01:50:54.823Z,929.98
2017-12-20T01:51:07.945Z,930
2017-12-20T01:51:21.028Z,930
2017-12-20T01:51:34.153Z,929.98
2017-12-20T01:51:47.200Z,930.01
2017-12-20T01:52:00.287Z,930
2017-12-20T01:52:12.482Z,929.97
2017-12-20T01:52:25.171Z,929.95
2017-12-20T01:52:37.826Z,929.99
2017-12-20T01:52:50.923Z,929.99
2017-12-20T01:53:04.011Z,929.97
2017-12-20T01:53:16.627Z,930.02
2017-12-20T01:53:29.344Z,930
2017-12-20T01:53:42.409Z,929.99
2017-12-20T01:53:55.480Z,930.01
2017-12-20T01:54:08.108Z,930.07
2017-12-20T01:54:21.177Z,929.99
2017-12-20T01:54:33.278Z,929.96
2017-12-20T01:54:46.386Z,930.03
2017-12-20T01:54:59.017Z,930
2017-12-20T01:55:12.811Z,930.02
2017-12-20T01:55:25.863Z,930.01
2017-12-20T01:55:38.943Z,929.99
2017-12-20T01:55:51.989Z,930
2017-12-20T01:56:05.115Z,930
2017-12-20T01:56:18.183Z,930
2017-12-20T01:56:32.261Z,929.96
2017-12-20T01:56:45.276Z,929.97
2017-12-20T01:56:58.375Z,929.94
2017-12-20T01:57:11.506Z,930
2017-12-20T01:57:24.100Z,929.97
2017-12-20T01:57:37.174Z,929.95
2017-12-20T01:57:51.772Z,929.99
2017-12-20T01:58:04.885Z,929.96
2017-12-20T01:58:18.036Z,929.96
2017-12-20T01:58:31.134Z,929.97
2017-12-20T01:58:44.262Z,929.97
2017-12-20T01:58:57.368Z,929.97
2017-12-20T01:59:10.442Z,929.94
2017-12-20T01:59:22.981Z,929.96
2017-12-20T01:59:36.057Z,929.92
2017-12-20T01:59:49.117Z,929.94
2017-12-20T02:00:01.708Z,929.96
2017-12-20T02:00:15.084Z,929.94
2017-12-20T02:00:28.172Z,929.94
2017-12-20T02:00:41.290Z,929.95
2017-12-20T02:00:54.467Z,929.96
2017-12-20T02:01:07.106Z,929.98
2017-12-20T02:01:20.202Z,929.95
2017-12-20T02:01:33.338Z,929.95
2017-12-20T02:01:46.464Z,929.92
2017-12-20T02:01:58.961Z,929.91
2017-12-20T02:02:12.092Z,929.92
2017-12-20T02:02:25.193Z,929.94
2017-12-20T02:02:38.286Z,929.92
2017-12-20T02:02:51.486Z,929.95
2017-12-20T02:03:04.514Z,929.96
2017-12-20T02:03:17.059Z,929.98
2017-12-20T02:03:30.110Z,929.93
2017-12-20T02:03:43.251Z,929.92
2017-12-20T02:03:56.380Z,929.9
2017-12-20T02:04:09.482Z,929.92
2017-12-20T02:04:22.203Z,929.9
2017-12-20T02:04:35.240Z,929.94
2017-12-20T02:04:48.364Z,929.93
2017-12-20T02:05:01.400Z,929.99
2017-12-20T02:05:13.525Z,929.9
2017-12-20T02:05:26.111Z,929.94
2017-12-20T02:05:39.161Z,929.93
2017-12-20T02:05:52.266Z,929.92
2017-12-20T02:06:05.305Z,929.97
2017-12-20T02:06:17.917Z,929.91
2017-12-20T02:06:31.045Z,929.91
2017-12-20T02:06:44.091Z,929.91
2017-12-20T02:06:57.145Z,929.89
2017-12-20T02:07:09.799Z,929.91
2017-12-20T02:07:22.817Z,929.92
2017-12-20T02:07:35.925Z,929.93
2017-12-20T02:07:49.003Z,929.91
2017-12-20T02:08:02.064Z,929.97
2017-12-20T02:08:14.677Z,929.92
2017-12-20T02:08:27.830Z,929.91
2017-12-20T02:08:40.489Z,929.91
2017-12-20T02:08:53.561Z,929.89
2017-12-20T02:09:06.203Z,929.91
2017-12-20T02:09:19.252Z,929.9
2017-12-20T02:09:32.401Z,929.91
2017-12-20T02:09:45.573Z,929.9
2017-12-20T02:09:58.650Z,929.91
2017-12-20T02:10:11.336Z,929.88
2017-12-20T02:10:24.725Z,929.89
2017-12-20T02:10:37.846Z,929.86
2017-12-20T02:10:51.048Z,929.89
2017-12-20T02:11:04.067Z,929.9
2017-12-20T02:11:16.242Z,929.93
2017-12-20T02:11:28.985Z,929.89
2017-12-20T02:11:42.056Z,929.91
2017-12-20T02:11:55.176Z,929.86
2017-12-20T02:12:07.831Z,929.85
2017-12-20T02:12:20.986Z,929.84
2017-12-20T02:12:34.072Z,929.85
2017-12-20T02:12:46.707Z,929.79
2017-12-20T02:12:59.737Z,929.83
2017-12-20T02:13:12.821Z,929.83
2017-12-20T02:13:25.552Z,929.82
2017-12-20T02:13:38.602Z,929.84
2017-12-20T02:13:51.721Z,929.84
2017-12-20T02:14:04.901Z,929.84
2017-12-20T02:14:18.016Z,929.84
2017-12-20T02:14:31.090Z,929.78
2017-12-20T02:14:44.212Z,929.79
2017-12-20T02:14:57.254Z,929.79
2017-12-20T02:15:09.469Z,929.79
2017-12-20T02:15:22.047Z,929.81
2017-12-20T02:15:35.172Z,929.74
2017-12-20T02:15:47.304Z,929.79
2017-12-20T02:16:00.374Z,929.76
2017-12-20T02:16:13.469Z,929.74
2017-12-20T02:16:26.595Z,929.78
2017-12-20T02:16:39.673Z,929.77
2017-12-20T02:16:52.759Z,929.75
2017-12-20T02:17:05.844Z,929.8
2017-12-20T02:17:18.973Z,929.75
2017-12-20T02:17:32.087Z,929.73
2017-12-20T02:17:45.180Z,929.74
2017-12-20T02:17:58.265Z,929.77
2017-12-20T02:18:11.361Z,929.76
2017-12-20T02:18:24.026Z,929.76
2017-12-20T02:18:37.195Z,929.74
2017-12-20T02:18:50.249Z,929.72
2017-12-20T02:19:03.392Z,929.71
2017-12-20T02:19:16.634Z,929.73
2017-12-20T02:19:29.677Z,929.74
2017-12-20T02:19:42.240Z,929.74
2017-12-20T02:19:54.829Z,929.73
2017-12-20T02:20:07.947Z,929.71
2017-12-20T02:20:21.273Z,929.75
2017-12-20T02:20:34.344Z,929.74
2017-12-20T02:20:47.409Z,929.72
2017-12-20T02:21:00.455Z,929.74
2017-12-20T02:21:13.615Z,929.7
2017-12-20T02:21:26.689Z,929.71
2017-12-20T02:21:40.097Z,929.68
2017-12-20T02:21:52.705Z,929.7
2017-12-20T02:22:05.831Z,929.7
2017-12-20T02:22:18.965Z,929.71
2017-12-20T02:22:32.031Z,929.7
2017-12-20T02:22:45.046Z,929.71
2017-12-20T02:22:57.756Z,929.7
2017-12-20T02:23:10.796Z,929.71
2017-12-20T02:23:23.889Z,929.7
2017-12-20T02:23:36.962Z,929.72
2017-12-20T02:23:50.091Z,929.71
2017-12-20T02:24:03.116Z,929.69
2017-12-20T02:24:16.236Z,929.69
2017-12-20T02:24:28.809Z,929.75
2017-12-20T02:24:41.936Z,929.76
2017-12-20T02:24:54.060Z,929.75
2017-12-20T02:25:06.187Z,929.71
2017-12-20T02:25:19.262Z,929.73
2017-12-20T02:25:33.127Z,929.73
2017-12-20T02:25:46.287Z,929.72
2017-12-20T02:25:59.388Z,929.7
2017-12-20T02:26:12.507Z,929.69
2017-12-20T02:26:25.644Z,929.65
2017-12-20T02:26:38.657Z,929.7
2017-12-20T02:26:51.290Z,929.74
2017-12-20T02:27:03.905Z,929.69
2017-12-20T02:27:16.959Z,929.7
2017-12-20T02:27:30.022Z,929.71
2017-12-20T02:27:42.586Z,929.65
2017-12-20T02:27:55.133Z,929.63
2017-12-20T02:28:08.196Z,929.64
2017-12-20T02:28:21.256Z,929.65
2017-12-20T02:28:34.299Z,929.67
2017-12-20T02:28:47.340Z,929.67
2017-12-20T02:29:00.421Z,929.69
2017-12-20T02:29:13.073Z,929.66
2017-12-20T02:29:26.158Z,929.66
2017-12-20T02:29:39.348Z,929.62
2017-12-20T02:29:52.521Z,929.64
2017-12-20T02:30:05.154Z,929.64
2017-12-20T02:30:18.190Z,929.65
2017-12-20T02:30:30.863Z,929.64
2017-12-20T02:30:44.001Z,929.66
2017-12-20T02:30:57.130Z,929.65
2017-12-20T02:31:09.736Z,929.63
2017-12-20T02:31:22.836Z,929.64
2017-12-20T02:31:35.915Z,929.65
2017-12-20T02:31:48.530Z,929.65
2017-12-20T02:32:01.590Z,929.65
2017-12-20T02:32:13.744Z,929.65
2017-12-20T02:32:26.837Z,929.64
2017-12-20T02:32:39.416Z,929.66
2017-12-20T02:32:52.480Z,929.65
2017-12-20T02:33:05.601Z,929.66
2017-12-20T02:33:17.763Z,929.67
2017-12-20T02:33:30.813Z,929.66
2017-12-20T02:33:43.902Z,929.61
2017-12-20T02:33:56.941Z,929.6
2017-12-20T02:34:09.517Z,929.62
2017-12-20T02:34:22.639Z,929.62
2017-12-20T02:34:35.769Z,929.59
2017-12-20T02:34:49.220Z,929.59
2017-12-20T02:35:02.265Z,929.61
2017-12-20T02:35:15.287Z,929.6
2017-12-20T02:35:28.317Z,929.61
2017-12-20T02:35:40.467Z,929.61
2017-12-20T02:35:53.112Z,929.59
2017-12-20T02:36:05.232Z,929.62
2017-12-20T02:36:17.412Z,929.59
2017-12-20T02:36:30.485Z,929.61
2017-12-20T02:36:42.593Z,929.6
2017-12-20T02:36:55.231Z,929.64
2017-12-20T02:37:08.504Z,929.57
2017-12-20T02:37:21.365Z,929.56
2017-12-20T02:37:34.436Z,929.54
2017-12-20T02:37:47.052Z,929.57
2017-12-20T02:38:00.200Z,929.58
2017-12-20T02:38:13.036Z,929.63
2017-12-20T02:38:26.148Z,929.54
2017-12-20T02:38:39.235Z,929.56
2017-12-20T02:38:52.344Z,929.51
2017-12-20T02:39:05.459Z,929.57
2017-12-20T02:39:17.569Z,929.58
2017-12-20T02:39:30.693Z,929.57
2017-12-20T02:39:43.281Z,929.54
2017-12-20T02:39:56.261Z,929.56
2017-12-20T02:40:08.913Z,929.53
2017-12-20T02:40:21.973Z,929.53
2017-12-20T02:40:35.741Z,929.56
2017-12-20T02:40:48.826Z,929.58
2017-12-20T02:41:01.880Z,929.58
2017-12-20T02:41:14.995Z,929.54
2017-12-20T02:41:27.560Z,929.54
2017-12-20T02:41:40.722Z,929.52
2017-12-20T02:41:53.305Z,929.52
2017-12-20T02:42:05.872Z,929.53
2017-12-20T02:42:18.898Z,929.54
2017-12-20T02:42:31.971Z,929.53
2017-12-20T02:42:44.996Z,929.57